Gure Amuitz — EASO — position and weather

sailwx.info

Track history (hours):
 
Tides and Currents Weather Stations Pressure Air Temp Water Temp Dewpoint Dewpoint Depression Visibility Wind Speed Wind Dir Waves Ship Positions

Gure Amuitz

Last reported at 2016-Aug-29 16:10 UTC. Time now 2016-Aug-29 23:33 UTC.
Position N 43°23' W 001°47'.

Length 28 m.

Type: Fishing. MMSI: 224010590.

Date/timePositionNaut miles runAvg speedWind from/ knotsBaromVisibWave heightAir tempDewpointWater temp
2016-Aug-29 16:10N 43°23' W 001°47'0 0.4
2016-Aug-29 15:32N 43°23' W 001°47'0 0.0
2016-Aug-29 14:32N 43°23' W 001°47'0 0.0
2016-Aug-29 13:25N 43°23' W 001°47'0 0.0
2016-Aug-29 12:28N 43°23' W 001°47'0 0.0
2016-Aug-29 11:33N 43°23' W 001°47'0 0.0
2016-Aug-29 10:17N 43°23' W 001°47'0 0.0
2016-Aug-29 09:18N 43°23' W 001°47'0 0.0
2016-Aug-29 08:34N 43°23' W 001°47'0 0.0
2016-Aug-29 07:33N 43°23' W 001°47'0 0.0
2016-Aug-29 06:33N 43°23' W 001°47'0 0.0
2016-Aug-29 05:30N 43°23' W 001°47'0 0.1
2016-Aug-29 04:23N 43°23' W 001°48'0 0.0
2016-Aug-29 01:22N 43°23' W 001°47'145 9.0
2016-Aug-28 09:20N 43°56' W 005°03'101 6.3
2016-Aug-27 17:17N 44°05' W 007°23'  
2016-Aug-23 23:19N 44°03' W 006°36'0 0.2
2016-Aug-23 22:30N 44°03' W 006°36'9 9.7
2016-Aug-23 21:32N 44°01' W 006°23'20 9.4
2016-Aug-23 19:27N 43°56' W 005°57'77 6.2
2016-Aug-23 07:07N 44°18' W 004°14'5 8.5
2016-Aug-23 06:29N 44°23' W 004°14'10 9.0
2016-Aug-23 05:25N 44°31' W 004°21'3 0.2
2016-Aug-22 16:12N 44°33' W 004°19'0 0.7
2016-Aug-22 15:32N 44°34' W 004°18'6 2.5
2016-Aug-22 13:19N 44°35' W 004°11'  
Track history (hours):
 
Tides and Currents Weather Stations Pressure Air Temp Water Temp Dewpoint Dewpoint Depression Visibility Wind Speed Wind Dir Waves Ship Positions

Gure Amuitz

Last reported at 2016-Aug-29 16:10 UTC. Time now 2016-Aug-29 23:33 UTC.
Position N 43°23' W 001°47'.

Length 28 m.

Type: Fishing. MMSI: 224010590.

Date/timePositionNaut miles runAvg speedWind from/ knotsBaromVisibWave heightAir tempDewpointWater temp
2016-Aug-29 16:10N 43°23' W 001°47'0 0.4
2016-Aug-29 15:32N 43°23' W 001°47'0 0.0
2016-Aug-29 14:32N 43°23' W 001°47'0 0.0
2016-Aug-29 13:25N 43°23' W 001°47'0 0.0
2016-Aug-29 12:28N 43°23' W 001°47'0 0.0
2016-Aug-29 11:33N 43°23' W 001°47'0 0.0
2016-Aug-29 10:17N 43°23' W 001°47'0 0.0
2016-Aug-29 09:18N 43°23' W 001°47'0 0.0
2016-Aug-29 08:34N 43°23' W 001°47'0 0.0
2016-Aug-29 07:33N 43°23' W 001°47'0 0.0
2016-Aug-29 06:33N 43°23' W 001°47'0 0.0
2016-Aug-29 05:30N 43°23' W 001°47'0 0.1
2016-Aug-29 04:23N 43°23' W 001°48'0 0.0
2016-Aug-29 01:22N 43°23' W 001°47'145 9.0
2016-Aug-28 09:20N 43°56' W 005°03'101 6.3
2016-Aug-27 17:17N 44°05' W 007°23'  
2016-Aug-23 23:19N 44°03' W 006°36'0 0.2
2016-Aug-23 22:30N 44°03' W 006°36'9 9.7
2016-Aug-23 21:32N 44°01' W 006°23'20 9.4
2016-Aug-23 19:27N 43°56' W 005°57'77 6.2
2016-Aug-23 07:07N 44°18' W 004°14'5 8.5
2016-Aug-23 06:29N 44°23' W 004°14'10 9.0
2016-Aug-23 05:25N 44°31' W 004°21'3 0.2
2016-Aug-22 16:12N 44°33' W 004°19'0 0.7
2016-Aug-22 15:32N 44°34' W 004°18'6 2.5
2016-Aug-22 13:19N 44°35' W 004°11'  

Dump ship's entire track history